createdAt,value
2024-05-09T00:00:00.515Z,10.99
2024-05-09T00:01:00.508Z,11.02
2024-05-09T00:02:00.426Z,11.02
2024-05-09T00:03:00.415Z,11.00
2024-05-09T00:04:00.513Z,11.00
2024-05-09T00:05:00.457Z,11.00
2024-05-09T00:06:00.608Z,11.02
2024-05-09T00:07:00.365Z,11.02
2024-05-09T00:08:00.325Z,11.00
2024-05-09T00:09:00.336Z,11.02
2024-05-09T00:10:00.288Z,11.02
2024-05-09T00:11:00.344Z,11.02
2024-05-09T00:12:00.579Z,11.02
2024-05-09T00:13:00.250Z,11.04
2024-05-09T00:14:00.300Z,11.04
2024-05-09T00:15:00.295Z,11.04
2024-05-09T00:16:00.206Z,11.04
2024-05-09T00:17:00.249Z,11.02
2024-05-09T00:18:00.696Z,11.04
2024-05-09T00:19:00.384Z,11.04
2024-05-09T00:20:00.278Z,11.00
2024-05-09T00:21:00.312Z,11.00
2024-05-09T00:22:00.246Z,11.02
2024-05-09T00:23:00.168Z,11.02
2024-05-09T00:24:00.135Z,11.00
2024-05-09T00:25:00.185Z,11.00
2024-05-09T00:26:00.135Z,11.00
2024-05-09T00:27:00.116Z,11.00
2024-05-09T00:28:00.079Z,10.99
2024-05-09T00:29:00.093Z,11.02
2024-05-09T00:30:00.085Z,11.02
2024-05-09T00:31:00.070Z,11.00
2024-05-09T00:32:00.200Z,11.02
2024-05-09T00:33:00.194Z,11.02
2024-05-09T00:34:00.135Z,11.00
2024-05-09T00:35:00.020Z,11.02
2024-05-09T00:35:59.924Z,11.00
2024-05-09T00:36:59.962Z,10.99
2024-05-09T00:38:00.124Z,11.00
2024-05-09T00:38:59.889Z,10.99
2024-05-09T00:39:59.871Z,11.00
2024-05-09T00:40:59.889Z,10.99
2024-05-09T00:41:59.839Z,10.97
2024-05-09T00:42:59.898Z,10.96
2024-05-09T00:43:59.874Z,10.97
2024-05-09T00:44:59.818Z,10.97
2024-05-09T00:46:00.043Z,10.96
2024-05-09T00:46:59.827Z,10.97
2024-05-09T00:47:59.901Z,10.97
2024-05-09T00:48:59.849Z,10.97
2024-05-09T00:49:59.783Z,10.99
2024-05-09T00:50:59.779Z,10.97
2024-05-09T00:51:59.702Z,10.97
2024-05-09T00:52:59.764Z,10.97
2024-05-09T00:53:59.713Z,10.96
2024-05-09T00:54:59.714Z,10.94
2024-05-09T00:55:59.813Z,10.93
2024-05-09T00:56:59.651Z,10.93
2024-05-09T00:57:59.625Z,10.93
2024-05-09T00:58:59.707Z,10.92
2024-05-09T00:59:59.616Z,10.92
2024-05-09T01:00:59.758Z,10.93
2024-05-09T01:01:59.681Z,10.92
2024-05-09T01:02:59.707Z,10.92
2024-05-09T01:03:59.722Z,10.92
2024-05-09T01:04:59.712Z,10.90
2024-05-09T01:05:59.563Z,10.87
2024-05-09T01:06:59.640Z,10.87
2024-05-09T01:07:59.546Z,10.84
2024-05-09T01:08:59.483Z,10.84
2024-05-09T01:09:59.513Z,10.86
2024-05-09T01:10:59.568Z,10.84
2024-05-09T01:11:59.564Z,10.82
2024-05-09T01:12:59.420Z,10.84
2024-05-09T01:13:59.430Z,10.81
2024-05-09T01:14:59.407Z,10.81
2024-05-09T01:15:59.452Z,10.82
2024-05-09T01:16:59.397Z,10.84
2024-05-09T01:17:59.659Z,10.84
2024-05-09T01:18:59.399Z,10.84
2024-05-09T01:19:59.392Z,10.82
2024-05-09T01:20:59.395Z,10.81
2024-05-09T01:21:59.335Z,10.82
2024-05-09T01:22:59.419Z,10.79
2024-05-09T01:23:59.281Z,10.81
2024-05-09T01:24:59.279Z,10.79
2024-05-09T01:25:59.271Z,10.81
2024-05-09T01:26:59.278Z,10.78
2024-05-09T01:28:20.227Z,10.79
2024-05-09T01:28:59.274Z,10.81
2024-05-09T01:29:59.198Z,10.81
2024-05-09T01:30:59.174Z,10.82
2024-05-09T01:31:59.421Z,10.79
2024-05-09T01:32:59.407Z,10.82
2024-05-09T01:33:59.303Z,10.82
2024-05-09T01:34:59.143Z,10.82
2024-05-09T01:35:59.130Z,10.81
2024-05-09T01:36:59.159Z,10.82
2024-05-09T01:37:59.182Z,10.82
2024-05-09T01:38:59.054Z,10.81
2024-05-09T01:39:59.061Z,10.84
2024-05-09T01:40:59.259Z,10.81
2024-05-09T01:41:59.023Z,10.81
2024-05-09T01:42:59.020Z,10.79
2024-05-09T01:43:59.054Z,10.79
2024-05-09T01:44:58.979Z,10.78
2024-05-09T01:45:58.966Z,10.79
2024-05-09T01:46:59.003Z,10.79
2024-05-09T01:47:59.302Z,10.82
2024-05-09T01:48:59.126Z,10.81
2024-05-09T01:49:59.006Z,10.81
2024-05-09T01:50:58.962Z,10.79
2024-05-09T01:51:58.892Z,10.79
2024-05-09T01:52:58.896Z,10.78
2024-05-09T01:53:58.856Z,10.78
2024-05-09T01:55:00.771Z,10.78
2024-05-09T01:55:59.027Z,10.78
2024-05-09T01:56:58.811Z,10.78
2024-05-09T01:57:58.930Z,10.78
2024-05-09T01:58:58.852Z,10.78
2024-05-09T01:59:58.836Z,10.79
2024-05-09T02:00:58.773Z,10.81
2024-05-09T02:01:59.015Z,10.79
2024-05-09T02:02:58.903Z,10.79
2024-05-09T02:03:59.062Z,10.82
2024-05-09T02:04:58.906Z,10.82
2024-05-09T02:05:58.702Z,10.84
2024-05-09T02:06:58.675Z,10.86
2024-05-09T02:07:58.695Z,10.86
2024-05-09T02:08:58.674Z,10.87
2024-05-09T02:09:58.691Z,10.86
2024-05-09T02:10:58.768Z,10.87
2024-05-09T02:11:58.791Z,10.87
2024-05-09T02:12:58.609Z,10.89
2024-05-09T02:13:58.630Z,10.89
2024-05-09T02:14:58.560Z,10.89
2024-05-09T02:15:58.564Z,10.90
2024-05-09T02:16:58.651Z,10.90
2024-05-09T02:17:58.656Z,10.90
2024-05-09T02:18:58.574Z,10.92
2024-05-09T02:19:58.541Z,10.90
2024-05-09T02:20:58.582Z,10.92
2024-05-09T02:21:58.483Z,10.89
2024-05-09T02:22:58.464Z,10.90
2024-05-09T02:23:58.445Z,10.90
2024-05-09T02:24:58.428Z,10.92
2024-05-09T02:25:58.492Z,10.90
2024-05-09T02:26:58.450Z,10.92
2024-05-09T02:27:58.417Z,10.92
2024-05-09T02:28:58.425Z,10.90
2024-05-09T02:29:58.449Z,10.92
2024-05-09T02:30:58.453Z,10.87
2024-05-09T02:31:58.371Z,10.89
2024-05-09T02:32:58.537Z,10.89
2024-05-09T02:33:58.506Z,10.87
2024-05-09T02:34:58.315Z,10.87
2024-05-09T02:35:58.317Z,10.89
2024-05-09T02:36:58.260Z,10.87
2024-05-09T02:37:58.300Z,10.87
2024-05-09T02:38:58.323Z,10.90
2024-05-09T02:39:58.239Z,10.89
2024-05-09T02:40:58.245Z,10.90
2024-05-09T02:41:58.187Z,10.90
2024-05-09T02:42:58.174Z,10.90
2024-05-09T02:43:58.267Z,10.90
2024-05-09T02:44:58.247Z,10.92
2024-05-09T02:45:58.147Z,10.92
2024-05-09T02:46:58.148Z,10.92
2024-05-09T02:47:58.754Z,10.92
2024-05-09T02:48:58.278Z,10.93
2024-05-09T02:49:58.110Z,10.93
2024-05-09T02:50:58.128Z,10.93
2024-05-09T02:51:58.062Z,10.94
2024-05-09T02:52:58.145Z,10.94
2024-05-09T02:53:58.037Z,10.94
2024-05-09T02:54:58.026Z,10.96
2024-05-09T02:55:58.055Z,10.94
2024-05-09T02:56:58.027Z,10.96
2024-05-09T02:57:57.981Z,10.97
2024-05-09T02:58:58.070Z,10.97
2024-05-09T02:59:57.955Z,10.99
2024-05-09T03:00:58.062Z,10.99
2024-05-09T03:01:58.057Z,10.99
2024-05-09T03:02:58.084Z,10.97
2024-05-09T03:03:58.024Z,10.99
2024-05-09T03:04:58.130Z,10.99
2024-05-09T03:05:57.913Z,10.99
2024-05-09T03:06:57.869Z,11.00
2024-05-09T03:07:57.847Z,11.00
2024-05-09T03:08:57.926Z,11.00
2024-05-09T03:09:57.822Z,10.99
2024-05-09T03:10:57.890Z,10.99
2024-05-09T03:11:57.922Z,11.00
2024-05-09T03:12:57.758Z,11.00
2024-05-09T03:13:57.810Z,11.02
2024-05-09T03:14:57.734Z,11.00
2024-05-09T03:15:57.802Z,11.00
2024-05-09T03:16:57.736Z,11.02
2024-05-09T03:17:57.845Z,11.02
2024-05-09T03:18:57.742Z,11.00
2024-05-09T03:19:57.699Z,11.00
2024-05-09T03:20:57.713Z,11.00
2024-05-09T03:21:57.683Z,11.00
2024-05-09T03:22:57.698Z,11.02
2024-05-09T03:23:57.690Z,10.99
2024-05-09T03:24:57.610Z,10.99
2024-05-09T03:25:57.613Z,10.99
2024-05-09T03:26:57.580Z,10.99
2024-05-09T03:27:57.622Z,10.99
2024-05-09T03:28:57.651Z,10.99
2024-05-09T03:29:57.534Z,10.97
2024-05-09T03:30:57.545Z,10.97
2024-05-09T03:31:57.581Z,10.99
2024-05-09T03:32:57.721Z,10.99
2024-05-09T03:33:57.621Z,10.99
2024-05-09T03:34:57.526Z,10.99
2024-05-09T03:35:57.455Z,10.99
2024-05-09T03:36:57.481Z,10.96
2024-05-09T03:37:57.503Z,10.99
2024-05-09T03:38:57.456Z,10.99
2024-05-09T03:39:57.399Z,10.99
2024-05-09T03:40:57.443Z,11.00
2024-05-09T03:41:57.447Z,10.99
2024-05-09T03:42:57.358Z,10.99
2024-05-09T03:43:57.420Z,11.02
2024-05-09T03:44:57.321Z,11.00
2024-05-09T03:45:57.441Z,10.99
2024-05-09T03:46:57.434Z,10.99
2024-05-09T03:47:57.607Z,10.99
2024-05-09T03:48:57.376Z,10.99
2024-05-09T03:49:57.361Z,10.99
2024-05-09T03:50:57.258Z,10.99
2024-05-09T03:51:57.240Z,10.97
2024-05-09T03:52:57.258Z,10.99
2024-05-09T03:53:57.210Z,10.97
2024-05-09T03:54:57.221Z,10.97
2024-05-09T03:55:57.311Z,10.97
2024-05-09T03:56:57.171Z,10.96
2024-05-09T03:57:57.194Z,10.96
2024-05-09T03:58:57.158Z,10.93
2024-05-09T03:59:57.216Z,10.92
2024-05-09T04:00:57.232Z,10.93
2024-05-09T04:01:57.176Z,10.92
2024-05-09T04:02:57.187Z,10.92
2024-05-09T04:03:57.168Z,10.93
2024-05-09T04:04:57.139Z,10.93
2024-05-09T04:05:57.065Z,10.93
2024-05-09T04:06:57.027Z,10.93
2024-05-09T04:07:57.197Z,10.93
2024-05-09T04:08:56.995Z,10.96
2024-05-09T04:09:56.974Z,10.96
2024-05-09T04:10:57.092Z,10.94
2024-05-09T04:11:57.113Z,10.94
2024-05-09T04:12:56.939Z,10.97
2024-05-09T04:13:56.970Z,10.97
2024-05-09T04:14:56.929Z,10.97
2024-05-09T04:15:56.945Z,10.94
2024-05-09T04:16:56.987Z,10.97
2024-05-09T04:17:57.131Z,10.97
2024-05-09T04:18:56.944Z,10.97
2024-05-09T04:19:56.889Z,10.99
2024-05-09T04:20:56.945Z,10.99
2024-05-09T04:21:57.420Z,10.99
2024-05-09T04:22:56.867Z,11.00
2024-05-09T04:23:56.796Z,11.00
2024-05-09T04:24:56.882Z,11.02
2024-05-09T04:25:57.418Z,11.04
2024-05-09T04:26:56.771Z,11.04
2024-05-09T04:27:56.776Z,11.04
2024-05-09T04:28:56.787Z,11.02
2024-05-09T04:29:56.713Z,11.02
2024-05-09T04:30:56.740Z,11.05
2024-05-09T04:31:56.747Z,11.05
2024-05-09T04:32:56.767Z,11.05
2024-05-09T04:33:56.825Z,11.05
2024-05-09T04:34:56.703Z,11.07
2024-05-09T04:35:56.643Z,11.07
2024-05-09T04:36:56.661Z,11.05
2024-05-09T04:37:56.603Z,11.07
2024-05-09T04:38:56.584Z,11.05
2024-05-09T04:39:56.572Z,11.07
2024-05-09T04:40:56.634Z,11.07
2024-05-09T04:41:56.582Z,11.07
2024-05-09T04:42:56.645Z,11.07
2024-05-09T04:43:56.613Z,11.10
2024-05-09T04:44:58.715Z,11.10
2024-05-09T04:45:56.544Z,11.08
2024-05-09T04:46:56.571Z,11.11
2024-05-09T04:47:56.759Z,11.11
2024-05-09T04:48:56.506Z,11.12
2024-05-09T04:49:56.480Z,11.12
2024-05-09T04:50:56.454Z,11.11
2024-05-09T04:51:56.486Z,11.14
2024-05-09T04:52:56.441Z,11.14
2024-05-09T04:53:56.414Z,11.14
2024-05-09T04:54:58.498Z,11.15
2024-05-09T04:55:56.408Z,11.14
2024-05-09T04:56:56.353Z,11.14
2024-05-09T04:57:56.379Z,11.14
2024-05-09T04:58:56.452Z,11.14
2024-05-09T04:59:56.324Z,11.15
2024-05-09T05:00:56.362Z,11.15
2024-05-09T05:01:56.384Z,11.14
2024-05-09T05:02:56.395Z,11.15
2024-05-09T05:03:56.496Z,11.15
2024-05-09T05:04:56.371Z,11.17
2024-05-09T05:05:56.381Z,11.15
2024-05-09T05:06:58.385Z,11.18
2024-05-09T05:07:56.259Z,11.18
2024-05-09T05:08:56.179Z,11.18
2024-05-09T05:09:56.170Z,11.22
2024-05-09T05:10:56.267Z,11.22
2024-05-09T05:11:56.276Z,11.22
2024-05-09T05:12:56.162Z,11.23
2024-05-09T05:13:56.150Z,11.26
2024-05-09T05:14:56.091Z,11.26
2024-05-09T05:15:57.696Z,11.27
2024-05-09T05:16:56.091Z,11.30
2024-05-09T05:17:56.217Z,11.30
2024-05-09T05:18:56.207Z,11.33
2024-05-09T05:19:56.193Z,11.33
2024-05-09T05:20:56.341Z,11.35
2024-05-09T05:21:56.040Z,11.36
2024-05-09T05:22:56.080Z,11.40
2024-05-09T05:23:56.011Z,11.40
2024-05-09T05:24:55.971Z,11.37
2024-05-09T05:25:56.116Z,11.41
2024-05-09T05:26:55.932Z,11.40
2024-05-09T05:27:55.929Z,11.41
2024-05-09T05:28:55.943Z,11.41
2024-05-09T05:29:55.970Z,11.40
2024-05-09T05:30:55.883Z,11.41
2024-05-09T05:31:55.925Z,11.40
2024-05-09T05:32:56.118Z,11.37
2024-05-09T05:33:55.985Z,11.40
2024-05-09T05:34:55.861Z,11.40
2024-05-09T05:35:55.832Z,11.41
2024-05-09T05:36:55.801Z,11.43
2024-05-09T05:37:55.876Z,11.43
2024-05-09T05:38:55.841Z,11.44
2024-05-09T05:39:55.775Z,11.41
2024-05-09T05:40:55.963Z,11.43
2024-05-09T05:41:55.734Z,11.43
2024-05-09T05:42:55.734Z,11.43
2024-05-09T05:43:55.717Z,11.41
2024-05-09T05:44:55.687Z,11.44
2024-05-09T05:45:55.727Z,11.44
2024-05-09T05:46:55.683Z,11.45
2024-05-09T05:47:55.971Z,11.47
2024-05-09T05:48:55.731Z,11.47
2024-05-09T05:49:55.639Z,11.47
2024-05-09T05:50:55.754Z,11.50
2024-05-09T05:51:55.591Z,11.47
2024-05-09T05:52:55.608Z,11.51
2024-05-09T05:53:55.559Z,11.52
2024-05-09T05:54:55.549Z,11.52
2024-05-09T05:55:55.685Z,11.55
2024-05-09T05:56:55.565Z,11.57
2024-05-09T05:57:55.523Z,11.57
2024-05-09T05:58:55.543Z,11.59
2024-05-09T05:59:55.491Z,11.59
2024-05-09T06:00:55.552Z,11.60
2024-05-09T06:01:55.596Z,11.60
2024-05-09T06:02:55.663Z,11.60
2024-05-09T06:03:55.545Z,11.60
2024-05-09T06:04:55.523Z,11.60
2024-05-09T06:05:55.478Z,11.60
2024-05-09T06:06:55.457Z,11.62
2024-05-09T06:07:55.466Z,11.63
2024-05-09T06:08:55.410Z,11.63
2024-05-09T06:09:55.357Z,11.65
2024-05-09T06:10:55.434Z,11.65
2024-05-09T06:11:55.386Z,11.68
2024-05-09T06:12:55.342Z,11.68
2024-05-09T06:13:55.349Z,11.69
2024-05-09T06:14:55.289Z,11.68
2024-05-09T06:15:55.292Z,11.68
2024-05-09T06:16:58.145Z,11.66
2024-05-09T06:17:55.387Z,11.68
2024-05-09T06:18:55.418Z,11.70
2024-05-09T06:19:55.283Z,11.68
2024-05-09T06:20:55.272Z,11.69
2024-05-09T06:21:55.206Z,11.69
2024-05-09T06:22:55.294Z,11.70
2024-05-09T06:23:55.195Z,11.72
2024-05-09T06:24:55.151Z,11.72
2024-05-09T06:25:55.218Z,11.70
2024-05-09T06:26:55.135Z,11.72
2024-05-09T06:27:55.160Z,11.70
2024-05-09T06:28:55.131Z,11.69
2024-05-09T06:29:55.097Z,11.68
2024-05-09T06:30:55.079Z,11.69
2024-05-09T06:31:57.183Z,11.69
2024-05-09T06:32:55.244Z,11.70
2024-05-09T06:33:55.294Z,11.70
2024-05-09T06:34:55.077Z,11.70
2024-05-09T06:35:55.004Z,11.72
2024-05-09T06:36:55.004Z,11.73
2024-05-09T06:37:55.001Z,11.75
2024-05-09T06:38:54.986Z,11.75
2024-05-09T06:39:54.937Z,11.78
2024-05-09T06:40:54.967Z,11.77
2024-05-09T06:41:54.928Z,11.78
2024-05-09T06:42:54.899Z,11.78
2024-05-09T06:43:54.951Z,11.81
2024-05-09T06:44:54.887Z,11.81
2024-05-09T06:45:54.862Z,11.81
2024-05-09T06:46:58.097Z,11.83
2024-05-09T06:47:54.969Z,11.84
2024-05-09T06:48:55.021Z,11.86
2024-05-09T06:49:54.863Z,11.87
2024-05-09T06:50:54.852Z,11.87
2024-05-09T06:51:54.768Z,11.88
2024-05-09T06:52:54.788Z,11.88
2024-05-09T06:53:54.817Z,11.90
2024-05-09T06:54:54.728Z,11.94
2024-05-09T06:55:54.791Z,11.97
2024-05-09T06:56:54.710Z,11.99
2024-05-09T06:57:54.688Z,12.00
2024-05-09T06:58:54.706Z,12.04
2024-05-09T06:59:54.660Z,12.04
2024-05-09T07:00:54.704Z,12.07
2024-05-09T07:01:54.720Z,12.09
2024-05-09T07:02:54.788Z,12.10
2024-05-09T07:03:54.700Z,12.13
2024-05-09T07:04:54.773Z,12.13
2024-05-09T07:05:54.606Z,12.13
2024-05-09T07:06:54.632Z,12.18
2024-05-09T07:07:54.592Z,12.20
2024-05-09T07:08:54.644Z,12.22
2024-05-09T07:09:54.520Z,12.24
2024-05-09T07:10:54.639Z,12.25
2024-05-09T07:11:54.564Z,12.22
2024-05-09T07:12:54.482Z,12.24
2024-05-09T07:13:54.540Z,12.25
2024-05-09T07:14:54.486Z,12.28
2024-05-09T07:15:54.477Z,12.28
2024-05-09T07:16:54.504Z,12.28
2024-05-09T07:17:54.543Z,12.28
2024-05-09T07:18:54.738Z,12.27
2024-05-09T07:19:54.409Z,12.27
2024-05-09T07:20:54.979Z,12.27
2024-05-09T07:21:54.363Z,12.27
2024-05-09T07:22:54.434Z,12.25
2024-05-09T07:23:54.429Z,12.25
2024-05-09T07:24:54.436Z,12.25
2024-05-09T07:25:54.479Z,12.22
2024-05-09T07:26:54.344Z,12.24
2024-05-09T07:27:54.294Z,12.25
2024-05-09T07:28:54.301Z,12.24
2024-05-09T07:29:54.266Z,12.25
2024-05-09T07:30:54.243Z,12.27
2024-05-09T07:31:54.378Z,12.27
2024-05-09T07:32:54.380Z,12.28
2024-05-09T07:33:54.267Z,12.29
2024-05-09T07:34:54.287Z,12.31
2024-05-09T07:35:54.212Z,12.31
2024-05-09T07:36:54.157Z,12.35
2024-05-09T07:37:54.250Z,12.35
2024-05-09T07:38:54.135Z,12.35
2024-05-09T07:39:54.129Z,12.37
2024-05-09T07:40:54.202Z,12.39
2024-05-09T07:41:54.147Z,12.42
2024-05-09T07:42:54.122Z,12.42
2024-05-09T07:43:54.120Z,12.46
2024-05-09T07:44:55.500Z,12.47
2024-05-09T07:45:56.105Z,12.49
2024-05-09T07:48:13.746Z,12.49
2024-05-09T07:51:32.667Z,12.45
2024-05-09T07:53:37.345Z,12.39
2024-05-09T07:53:51.384Z,12.45
2024-05-09T07:54:24.108Z,12.47
2024-05-09T07:55:24.165Z,12.53
2024-05-09T07:56:24.855Z,12.55
2024-05-09T07:57:23.948Z,12.58
2024-05-09T07:58:23.893Z,12.61
2024-05-09T07:59:23.926Z,12.64
2024-05-09T08:00:30.894Z,12.68
2024-05-09T08:01:23.949Z,12.72
2024-05-09T08:02:23.988Z,12.78
2024-05-09T08:03:24.256Z,12.80
2024-05-09T08:04:26.580Z,12.85
2024-05-09T08:05:23.872Z,12.90
2024-05-09T08:06:23.774Z,12.86
2024-05-09T08:07:23.867Z,12.90
2024-05-09T08:08:23.829Z,12.94
2024-05-09T08:09:23.745Z,12.95
2024-05-09T08:10:28.551Z,12.98
2024-05-09T08:11:23.979Z,13.01
2024-05-09T08:12:23.732Z,13.04
2024-05-09T08:13:23.753Z,13.05
2024-05-09T08:14:23.655Z,13.09
2024-05-09T08:15:23.712Z,13.08
2024-05-09T08:16:23.974Z,13.12
2024-05-09T08:17:23.751Z,13.15
2024-05-09T08:18:23.762Z,13.18
2024-05-09T08:19:23.623Z,13.18
2024-05-09T08:20:30.953Z,13.19
2024-05-09T08:21:23.622Z,13.18
2024-05-09T08:22:23.554Z,13.18
2024-05-09T08:23:23.568Z,13.19
2024-05-09T08:24:23.580Z,13.20
2024-05-09T08:25:23.579Z,13.19
2024-05-09T08:26:23.535Z,13.20
2024-05-09T08:27:23.514Z,13.22
2024-05-09T08:28:23.625Z,13.23
2024-05-09T08:29:23.460Z,13.23
2024-05-09T08:30:30.113Z,13.27
2024-05-09T08:31:23.560Z,13.31
2024-05-09T08:32:23.579Z,13.35
2024-05-09T08:33:23.513Z,13.38
2024-05-09T08:34:23.498Z,13.41
2024-05-09T08:35:23.398Z,13.47
2024-05-09T08:36:23.357Z,13.56
2024-05-09T08:37:26.220Z,13.63
2024-05-09T08:38:23.370Z,13.68
2024-05-09T08:39:23.369Z,13.75
2024-05-09T08:40:30.743Z,13.86
2024-05-09T08:41:23.301Z,13.92
2024-05-09T08:42:23.394Z,14.04
2024-05-09T08:43:23.583Z,14.11
2024-05-09T08:44:23.253Z,14.23
2024-05-09T08:45:23.242Z,14.35
2024-05-09T08:46:23.361Z,14.45
2024-05-09T08:47:23.287Z,14.51
2024-05-09T08:48:23.544Z,14.60
2024-05-09T08:49:23.297Z,14.68
2024-05-09T08:50:32.045Z,14.72
2024-05-09T08:51:23.180Z,14.79
2024-05-09T08:52:23.176Z,14.81
2024-05-09T08:53:23.149Z,14.86
2024-05-09T08:54:23.119Z,14.96
2024-05-09T08:55:23.137Z,15.00
2024-05-09T08:56:23.104Z,15.06
2024-05-09T08:57:23.121Z,15.07
2024-05-09T08:58:23.143Z,15.11
2024-05-09T08:59:23.048Z,15.14
2024-05-09T09:00:33.418Z,15.22
2024-05-09T09:01:23.149Z,15.25
2024-05-09T09:02:23.256Z,15.28
2024-05-09T09:03:23.042Z,15.37
2024-05-09T09:04:23.215Z,15.37
2024-05-09T09:05:23.178Z,15.42
2024-05-09T09:06:22.949Z,15.46
2024-05-09T09:07:23.143Z,15.47
2024-05-09T09:08:22.962Z,15.47
2024-05-09T09:09:22.937Z,15.51
2024-05-09T09:10:29.705Z,15.54
2024-05-09T09:11:23.009Z,15.55
2024-05-09T09:12:22.890Z,15.57
2024-05-09T09:13:22.915Z,15.55
2024-05-09T09:14:22.868Z,15.55
2024-05-09T09:15:22.851Z,15.55
2024-05-09T09:16:23.085Z,15.52
2024-05-09T09:17:23.056Z,15.52
2024-05-09T09:18:22.887Z,15.51
2024-05-09T09:19:22.989Z,15.55
2024-05-09T09:20:28.633Z,15.58
2024-05-09T09:21:22.830Z,15.62
2024-05-09T09:22:22.762Z,15.67
2024-05-09T09:23:22.771Z,15.64
2024-05-09T09:24:22.748Z,15.62
2024-05-09T09:25:22.726Z,15.62
2024-05-09T09:26:22.695Z,15.64
2024-05-09T09:27:22.798Z,15.64
2024-05-09T09:28:22.780Z,15.62
2024-05-09T09:29:22.724Z,15.67
2024-05-09T09:30:34.027Z,15.65
2024-05-09T09:31:22.651Z,15.70
2024-05-09T09:32:22.661Z,15.75
2024-05-09T09:33:22.758Z,15.76
2024-05-09T09:34:22.767Z,15.75
2024-05-09T09:35:22.647Z,15.72
2024-05-09T09:36:22.550Z,15.72
2024-05-09T09:37:22.549Z,15.72
2024-05-09T09:38:22.628Z,15.68
2024-05-09T09:39:22.533Z,15.68
2024-05-09T09:40:29.046Z,15.70
2024-05-09T09:41:22.510Z,15.72
2024-05-09T09:42:22.492Z,15.70
2024-05-09T09:43:23.020Z,15.70
2024-05-09T09:44:22.437Z,15.65
2024-05-09T09:45:22.473Z,15.68
2024-05-09T09:46:22.440Z,15.68
2024-05-09T09:47:22.459Z,15.68
2024-05-09T09:48:23.074Z,15.67
2024-05-09T09:49:22.436Z,15.73
2024-05-09T09:50:27.947Z,15.77
2024-05-09T09:51:22.364Z,15.84
2024-05-09T09:52:22.478Z,15.90
2024-05-09T09:53:22.345Z,15.97
2024-05-09T09:54:22.360Z,16.01
2024-05-09T09:55:22.513Z,16.02
2024-05-09T09:56:22.329Z,16.04
2024-05-09T09:57:22.363Z,16.04
2024-05-09T09:58:22.372Z,16.05
2024-05-09T09:59:22.271Z,16.04
2024-05-09T10:00:27.252Z,16.09
2024-05-09T10:01:22.380Z,16.12
2024-05-09T10:02:22.314Z,16.13
2024-05-09T10:03:22.361Z,16.16
2024-05-09T10:04:22.284Z,16.12
2024-05-09T10:05:22.472Z,16.16
2024-05-09T10:06:22.177Z,16.21
2024-05-09T10:07:22.209Z,16.21
2024-05-09T10:08:22.115Z,16.24
2024-05-09T10:09:22.102Z,16.26
2024-05-09T10:10:29.895Z,16.29
2024-05-09T10:11:22.303Z,16.29
2024-05-09T10:12:22.154Z,16.31
2024-05-09T10:13:22.259Z,16.32
2024-05-09T10:14:22.076Z,16.33
2024-05-09T10:15:22.041Z,16.35
2024-05-09T10:16:22.371Z,16.36
2024-05-09T10:17:22.077Z,16.38
2024-05-09T10:18:22.050Z,16.41
2024-05-09T10:19:22.030Z,16.38
2024-05-09T10:20:27.708Z,16.33
2024-05-09T10:21:22.026Z,16.33
2024-05-09T10:22:21.964Z,16.35
2024-05-09T10:23:21.950Z,16.36
2024-05-09T10:24:21.904Z,16.33
2024-05-09T10:25:22.245Z,16.31
2024-05-09T10:26:21.878Z,16.31
2024-05-09T10:27:21.921Z,16.31
2024-05-09T10:28:21.875Z,16.32
2024-05-09T10:29:21.834Z,16.26
2024-05-09T10:30:29.571Z,16.24
2024-05-09T10:31:21.893Z,16.23
2024-05-09T10:32:21.873Z,16.17
2024-05-09T10:33:21.899Z,16.15
2024-05-09T10:34:22.056Z,16.16
2024-05-09T10:35:21.745Z,16.16
2024-05-09T10:36:21.814Z,16.13
2024-05-09T10:37:21.888Z,16.16
2024-05-09T10:38:21.731Z,16.20
2024-05-09T10:39:21.713Z,16.23
2024-05-09T10:40:26.602Z,16.29
2024-05-09T10:41:21.691Z,16.31
2024-05-09T10:42:21.737Z,16.29
2024-05-09T10:43:21.721Z,16.31
2024-05-09T10:44:21.636Z,16.33
2024-05-09T10:45:21.614Z,16.38
2024-05-09T10:46:21.879Z,16.39
2024-05-09T10:47:21.645Z,16.43
2024-05-09T10:48:21.670Z,16.47
2024-05-09T10:49:21.748Z,16.49
2024-05-09T10:50:28.174Z,16.51
2024-05-09T10:51:21.554Z,16.53
2024-05-09T10:52:21.558Z,16.56
2024-05-09T10:53:21.544Z,16.58
2024-05-09T10:54:21.507Z,16.61
2024-05-09T10:55:21.993Z,16.65
2024-05-09T10:56:21.463Z,16.66
2024-05-09T10:57:21.462Z,16.68
2024-05-09T10:58:21.533Z,16.69
2024-05-09T10:59:21.425Z,16.71
2024-05-09T11:00:27.713Z,16.75
2024-05-09T11:01:21.455Z,16.81
2024-05-09T11:02:21.568Z,16.86
2024-05-09T11:03:21.534Z,16.91
2024-05-09T11:04:21.623Z,16.96
2024-05-09T11:05:21.547Z,17.04
2024-05-09T11:06:21.321Z,17.06
2024-05-09T11:07:21.556Z,17.15
2024-05-09T11:08:21.315Z,17.19
2024-05-09T11:09:21.304Z,17.20
2024-05-09T11:10:27.730Z,17.23
2024-05-09T11:11:21.274Z,17.27
2024-05-09T11:12:22.842Z,17.48
2024-05-09T11:13:21.994Z,17.70
2024-05-09T11:14:21.213Z,17.92
2024-05-09T11:15:21.244Z,18.22
2024-05-09T11:16:21.621Z,18.34
2024-05-09T11:17:21.444Z,18.44
2024-05-09T11:18:24.446Z,18.53
2024-05-09T11:19:21.365Z,18.53
2024-05-09T11:20:29.075Z,18.60
2024-05-09T11:21:21.123Z,18.65
2024-05-09T11:22:21.120Z,18.65
2024-05-09T11:23:21.112Z,18.62
2024-05-09T11:24:21.114Z,18.59
2024-05-09T11:25:21.119Z,18.59
2024-05-09T11:26:21.054Z,18.58
2024-05-09T11:27:21.058Z,18.50
2024-05-09T11:28:21.257Z,18.41
2024-05-09T11:29:21.047Z,18.37
2024-05-09T11:30:26.856Z,18.28
2024-05-09T11:31:21.386Z,18.23
2024-05-09T11:32:21.027Z,18.22
2024-05-09T11:33:21.007Z,18.22
2024-05-09T11:34:21.051Z,18.18
2024-05-09T11:35:20.966Z,18.15
2024-05-09T11:36:20.964Z,18.11
2024-05-09T11:37:21.036Z,18.11
2024-05-09T11:38:20.897Z,18.11
2024-05-09T11:39:20.883Z,18.15
2024-05-09T11:40:25.552Z,18.11
2024-05-09T11:41:20.851Z,18.11
2024-05-09T11:42:20.841Z,18.13
2024-05-09T11:43:21.151Z,18.15
2024-05-09T11:44:20.813Z,18.13
2024-05-09T11:45:20.882Z,18.16
2024-05-09T11:46:20.950Z,18.22
2024-05-09T11:47:20.863Z,18.26
2024-05-09T11:48:21.036Z,18.35
2024-05-09T11:49:22.510Z,18.35
2024-05-09T11:50:27.195Z,18.35
2024-05-09T11:51:20.710Z,18.43
2024-05-09T11:52:20.741Z,18.55
2024-05-09T11:53:20.705Z,18.74
2024-05-09T11:54:20.699Z,18.83
2024-05-09T11:55:22.048Z,18.93
2024-05-09T11:56:20.669Z,19.11
2024-05-09T11:57:20.644Z,19.16
2024-05-09T11:58:20.724Z,19.24
2024-05-09T11:59:20.621Z,19.40
2024-05-09T12:00:29.242Z,19.54
2024-05-09T12:01:21.350Z,19.74
2024-05-09T12:02:20.828Z,19.73
2024-05-09T12:03:20.572Z,19.82
2024-05-09T12:04:20.732Z,19.91
2024-05-09T12:05:20.925Z,20.07
2024-05-09T12:06:20.561Z,20.14
2024-05-09T12:07:20.549Z,20.26
2024-05-09T12:08:20.483Z,20.22
2024-05-09T12:09:20.467Z,20.21
2024-05-09T12:10:26.023Z,20.22
2024-05-09T12:11:20.518Z,20.22
2024-05-09T12:12:20.448Z,20.24
2024-05-09T12:13:20.630Z,20.26
2024-05-09T12:14:20.421Z,20.19
2024-05-09T12:15:20.416Z,20.14
2024-05-09T12:16:20.684Z,20.06
2024-05-09T12:17:20.477Z,19.95
2024-05-09T12:18:20.401Z,19.81
2024-05-09T12:19:20.416Z,19.76
2024-05-09T12:20:28.545Z,19.73
2024-05-09T12:21:20.406Z,19.67
2024-05-09T12:22:20.369Z,19.59
2024-05-09T12:23:20.286Z,19.55
2024-05-09T12:24:20.286Z,19.49
2024-05-09T12:25:20.319Z,19.39
2024-05-09T12:26:20.237Z,19.31
2024-05-09T12:27:20.316Z,19.24
2024-05-09T12:28:20.272Z,19.15
2024-05-09T12:29:20.246Z,19.08
2024-05-09T12:30:32.253Z,19.02
2024-05-09T12:31:20.258Z,18.95
2024-05-09T12:32:20.197Z,18.86
2024-05-09T12:33:20.323Z,18.83
2024-05-09T12:34:20.190Z,18.80
2024-05-09T12:35:20.117Z,18.75
2024-05-09T12:36:20.114Z,18.71
2024-05-09T12:37:20.166Z,18.68
2024-05-09T12:38:20.090Z,18.68
2024-05-09T12:39:20.139Z,18.81
2024-05-09T12:40:26.808Z,18.95
2024-05-09T12:41:20.071Z,19.16
2024-05-09T12:42:27.077Z,19.44
2024-05-09T12:43:20.105Z,19.74
2024-05-09T12:44:20.101Z,20.02
2024-05-09T12:45:20.005Z,20.26
2024-05-09T12:46:20.233Z,20.50
2024-05-09T12:47:20.093Z,20.67
2024-05-09T12:48:20.106Z,20.80
2024-05-09T12:49:20.492Z,20.87
2024-05-09T12:50:29.118Z,20.95
2024-05-09T12:51:19.992Z,20.93
2024-05-09T12:52:20.057Z,21.06
2024-05-09T12:53:19.886Z,21.15
2024-05-09T12:54:19.871Z,21.21
2024-05-09T12:55:19.904Z,21.33